Time;durP1;ratioP1;P1;durP2;ratioP2;P2;SDS_P1;SDS_P2;PMS_P1;PMS_P2;Temp;Humidity;BMP_temperature;BMP_pressure;BME280_temperature;BME280_humidity;BME280_pressure;Samples;Min_cycle;Max_cycle;Signal;HPM_P1;HPM_P2
2022/11/04 00:00:13;;;;;;;12.25;6.15;;;;;;;8.24;96.43;93256.97;5091347;28;20408;-76
2022/11/04 00:02:40;;;;;;;9.52;4.88;;;;;;;8.19;96.12;93246.50;5091918;28;20044;-76
2022/11/04 00:05:07;;;;;;;11.50;5.60;;;;;;;8.19;96.20;93261.09;5091953;28;20062;-76
2022/11/04 00:12:23;;;;;;;15.73;6.22;;;;;;;7.96;96.43;93250.19;5091575;28;20055;-76
2022/11/04 00:13:05;;;;;;;9.07;5.53;;;;;;;7.92;97.03;93238.75;5090900;28;20052;-77
2022/11/04 00:18:20;;;;;;;11.82;5.70;;;;;;;7.95;97.09;93256.31;5091306;28;20173;-76
2022/11/04 00:29:03;;;;;;;;;;;;;;;7.80;98.13;93247.97;5091862;28;20878;-76
2022/11/04 00:34:13;;;;;;;11.65;6.85;;;;;;;7.78;99.70;93244.84;5090573;28;20170;-76
2022/11/04 00:36:40;;;;;;;13.70;7.95;;;;;;;7.78;99.86;93234.59;5090348;28;20069;-76
2022/11/04 00:39:07;;;;;;;12.35;6.93;;;;;;;7.75;100.00;93240.88;5091189;28;20056;-76
2022/11/04 00:41:35;;;;;;;13.75;6.60;;;;;;;7.78;100.00;93244.84;5090949;28;20565;-76
2022/11/04 00:44:04;;;;;;;12.70;6.75;;;;;;;7.76;100.00;93237.34;5091243;28;20091;-76
2022/11/04 00:46:32;;;;;;;11.18;6.78;;;;;;;7.76;100.00;93229.69;5091180;28;20105;-76
2022/11/04 00:49:00;;;;;;;12.15;6.78;;;;;;;7.75;100.00;93221.22;5091164;28;20415;-76
2022/11/04 00:51:27;;;;;;;12.00;6.28;;;;;;;7.77;100.00;93230.47;5091066;28;20098;-76
2022/11/04 00:53:54;;;;;;;11.48;6.88;;;;;;;7.81;100.00;93218.88;5091454;28;20051;-76
2022/11/04 00:56:21;;;;;;;10.98;6.20;;;;;;;7.88;100.00;93219.69;5090969;28;20143;-76
2022/11/04 00:58:49;;;;;;;14.05;6.68;;;;;;;7.89;100.00;93216.16;5091444;28;20052;-76
2022/11/04 01:01:17;;;;;;;12.35;6.70;;;;;;;7.92;100.00;93215.75;5091228;28;20127;-76
2022/11/04 01:03:45;;;;;;;17.52;6.43;;;;;;;7.95;100.00;93212.81;5091386;28;20113;-77
2022/11/04 01:06:11;;;;;;;11.55;6.45;;;;;;;7.92;100.00;93209.88;5090737;28;20459;-77
2022/11/04 01:08:38;;;;;;;12.27;6.70;;;;;;;7.86;100.00;93209.66;5090727;28;20431;-76
2022/11/04 01:11:07;;;;;;;12.63;6.07;;;;;;;7.80;100.00;93195.06;5091157;28;20101;-76
2022/11/04 01:13:34;;;;;;;18.23;6.90;;;;;;;7.75;100.00;93205.88;5090314;28;20074;-75
2022/11/04 01:16:05;;;;;;;12.45;6.90;;;;;;;7.68;100.00;93194.84;5090646;28;20048;-75
2022/11/04 01:18:32;;;;;;;13.57;6.05;;;;;;;7.66;100.00;93191.69;5090831;28;20400;-75
2022/11/04 01:21:01;;;;;;;13.43;6.85;;;;;;;7.62;100.00;93190.50;5090903;28;20447;-75
2022/11/04 01:23:28;;;;;;;12.23;7.30;;;;;;;7.57;99.91;93193.63;5080495;28;20056;-75
2022/11/04 01:25:54;;;;;;;10.02;6.50;;;;;;;7.46;100.00;93178.84;5086828;28;20101;-75
2022/11/04 01:28:21;;;;;;;10.82;6.15;;;;;;;7.49;100.00;93184.34;5090460;28;20048;-75
2022/11/04 01:30:48;;;;;;;12.63;7.00;;;;;;;7.46;100.00;93184.72;5090797;28;20052;-76
2022/11/04 01:33:16;;;;;;;16.02;7.10;;;;;;;7.35;100.00;93186.06;5090729;28;20051;-75
2022/11/04 01:35:43;;;;;;;14.27;7.38;;;;;;;7.15;100.00;93188.53;5090766;28;20044;-76
2022/11/04 01:38:09;;;;;;;12.40;7.05;;;;;;;6.96;100.00;93192.56;5090736;28;20044;-76
2022/11/04 01:40:37;;;;;;;12.65;7.15;;;;;;;6.81;100.00;93157.69;5090232;28;20051;-76
2022/11/04 01:43:04;;;;;;;16.00;7.03;;;;;;;6.88;100.00;93173.06;5090222;28;20181;-77
2022/11/04 01:45:30;;;;;;;15.50;8.40;;;;;;;7.09;100.00;93181.63;5089836;28;20153;-76
2022/11/04 01:48:01;;;;;;;13.80;7.90;;;;;;;7.22;100.00;93183.44;5089623;28;20047;-76
2022/11/04 01:50:32;;;;;;;16.42;8.32;;;;;;;7.18;100.00;93170.25;5090328;28;20051;-76
2022/11/04 01:53:05;;;;;;;17.80;8.27;;;;;;;7.26;100.00;93166.00;5090151;28;20089;-76
2022/11/04 01:55:34;;;;;;;11.77;7.38;;;;;;;7.47;100.00;93170.19;5089474;28;20048;-76
2022/11/04 01:58:06;;;;;;;12.55;7.75;;;;;;;7.54;100.00;93178.66;5090513;28;20040;-76
2022/11/04 02:00:33;;;;;;;18.20;8.48;;;;;;;7.50;100.00;93154.47;5089957;28;20098;-76
2022/11/04 02:03:04;;;;;;;13.75;7.30;;;;;;;7.49;100.00;93158.78;5090192;28;20044;-76
2022/11/04 02:05:33;;;;;;;14.43;6.68;;;;;;;7.59;100.00;93176.31;5090148;28;20101;-76
2022/11/04 02:08:02;;;;;;;14.38;7.13;;;;;;;7.62;100.00;93165.72;5090062;28;20101;-76
2022/11/04 02:10:30;;;;;;;13.40;7.70;;;;;;;7.58;100.00;93161.16;5090191;28;20040;-76
2022/11/04 02:12:58;;;;;;;15.88;7.13;;;;;;;7.65;100.00;93161.19;5089530;28;20887;-76
2022/11/04 02:15:36;;;;;;;15.40;7.13;;;;;;;7.53;100.00;93141.31;5090093;28;20067;-77
2022/11/04 02:18:17;;;;;;;14.55;8.18;;;;;;;7.60;100.00;93154.88;5089987;28;20040;-76
2022/11/04 02:21:13;;;;;;;13.93;7.65;;;;;;;7.53;100.00;93150.72;5090031;28;20047;-75
2022/11/04 02:24:06;;;;;;;14.85;8.10;;;;;;;7.42;100.00;93152.09;5079204;28;20112;-75
2022/11/04 02:26:56;;;;;;;13.43;7.40;;;;;;;7.33;100.00;93149.69;5089534;28;20389;-76
2022/11/04 02:29:59;;;;;;;48.80;25.75;;;;;;;7.19;100.00;93146.28;5089552;28;20055;-76
2022/11/04 02:32:50;;;;;;;19.73;11.27;;;;;;;7.13;100.00;93138.59;5077310;28;20098;-76
2022/11/04 02:35:23;;;;;;;13.68;7.95;;;;;;;7.00;100.00;93136.78;5089482;28;20346;-76
2022/11/04 02:37:57;;;;;;;14.10;8.48;;;;;;;6.87;100.00;93127.28;5089821;28;20048;-76
2022/11/04 02:40:33;;;;;;;16.70;10.38;;;;;;;7.00;100.00;93144.44;5089733;28;20052;-76
2022/11/04 02:43:04;;;;;;;18.10;12.80;;;;;;;6.90;100.00;93147.34;5089263;28;20051;-76
2022/11/04 02:45:38;;;;;;;16.63;8.90;;;;;;;6.58;100.00;93144.38;5089766;28;20052;-76
2022/11/04 02:48:10;;;;;;;18.08;8.55;;;;;;;6.39;100.00;93152.50;5089408;28;20055;-75
2022/11/04 02:50:44;;;;;;;46.90;26.35;;;;;;;6.26;100.00;93147.31;5086707;28;20408;-75
2022/11/04 02:53:16;;;;;;;23.00;13.95;;;;;;;6.36;100.00;93142.69;5089653;28;20055;-75
2022/11/04 02:55:46;;;;;;;29.70;15.50;;;;;;;6.33;100.00;93137.94;5091255;28;20048;-75
2022/11/04 02:58:19;;;;;;;25.65;12.38;;;;;;;6.15;100.00;93138.38;5079417;28;20121;-75
2022/11/04 03:00:51;;;;;;;58.97;29.73;;;;;;;6.20;100.00;93128.41;5093750;28;20047;-75
2022/11/04 03:03:22;;;;;;;27.23;15.30;;;;;;;6.19;100.00;93144.69;5093143;28;20048;-76
2022/11/04 03:05:52;;;;;;;38.08;19.85;;;;;;;6.19;100.00;93141.34;5093416;28;20045;-76
2022/11/04 03:08:27;;;;;;;35.88;18.33;;;;;;;6.14;100.00;93117.19;5093235;28;20101;-76
2022/11/04 03:10:59;;;;;;;27.02;14.13;;;;;;;6.26;100.00;93134.56;5093399;28;20466;-76
2022/11/04 03:13:32;;;;;;;23.50;12.55;;;;;;;6.26;100.00;93121.81;5093245;28;20488;-76
2022/11/04 03:16:03;;;;;;;79.53;40.97;;;;;;;6.38;100.00;93127.97;5093172;28;20109;-76
2022/11/04 03:18:36;;;;;;;24.50;13.60;;;;;;;6.29;100.00;93121.41;5093430;28;20098;-76
2022/11/04 03:21:08;;;;;;;40.15;18.83;;;;;;;6.10;100.00;93099.88;5092996;28;20101;-76
2022/11/04 03:23:36;;;;;;;40.85;16.85;;;;;;;6.20;100.00;93133.50;5092423;28;20052;-76
2022/11/04 03:26:12;;;;;;;39.20;15.65;;;;;;;6.13;100.00;93135.22;5093193;28;20056;-76
2022/11/04 03:28:46;;;;;;;39.42;16.98;;;;;;;6.07;100.00;93129.09;5093104;28;20048;-76
2022/11/04 03:31:21;;;;;;;39.65;18.25;;;;;;;6.01;100.00;93120.41;5092583;28;20044;-76
2022/11/04 03:33:50;;;;;;;45.97;19.30;;;;;;;6.22;100.00;93134.13;5092683;28;20423;-76
2022/11/04 03:36:19;;;;;;;51.88;22.50;;;;;;;6.21;100.00;93135.09;5093528;28;20124;-76
2022/11/04 03:38:46;;;;;;;94.68;46.47;;;;;;;6.17;100.00;93136.44;5092911;28;20048;-76
2022/11/04 03:41:18;;;;;;;52.00;24.95;;;;;;;6.13;100.00;93132.69;5092486;28;20097;-75
2022/11/04 03:43:45;;;;;;;37.53;18.33;;;;;;;6.15;100.00;93130.72;5092541;28;20048;-75
2022/11/04 03:46:12;;;;;;;39.90;17.77;;;;;;;6.00;100.00;93136.69;5092931;28;20051;-75
2022/11/04 03:48:43;;;;;;;37.80;16.27;;;;;;;5.92;100.00;93130.91;5092250;28;20056;-76
2022/11/04 03:51:10;;;;;;;43.33;18.13;;;;;;;5.85;100.00;93118.09;5092781;28;20048;-75
2022/11/04 03:53:37;;;;;;;72.05;31.80;;;;;;;5.83;100.00;93118.28;5092327;28;20056;-75
2022/11/04 03:56:20;;;;;;;50.65;21.83;;;;;;;5.93;100.00;93117.97;5092436;28;20044;-75
2022/11/04 03:58:59;;;;;;;45.38;21.98;;;;;;;5.87;100.00;93116.94;5092247;28;20052;-74
2022/11/04 04:01:33;;;;;;;41.97;16.80;;;;;;;5.87;100.00;93123.78;5092575;28;20047;-75
2022/11/04 04:04:13;;;;;;;41.50;17.23;;;;;;;5.74;100.00;93121.94;5091968;28;20582;-75
2022/11/04 04:06:43;;;;;;;51.85;17.38;;;;;;;5.66;100.00;93117.75;5091532;28;20161;-75
2022/11/04 04:09:18;;;;;;;50.63;18.45;;;;;;;5.60;100.00;93116.69;5092314;28;20052;-75
2022/11/04 04:11:55;;;;;;;55.97;18.95;;;;;;;5.60;100.00;93113.38;5092540;28;20055;-75
2022/11/04 04:14:40;;;;;;;61.40;19.35;;;;;;;5.58;100.00;93112.75;5091995;28;20506;-75
2022/11/04 04:17:14;;;;;;;53.13;22.08;;;;;;;5.47;100.00;93091.88;5092322;28;20052;-76
2022/11/04 04:19:46;;;;;;;51.33;21.23;;;;;;;5.57;100.00;93103.53;5091746;28;20063;-76
2022/11/04 04:22:18;;;;;;;53.63;19.35;;;;;;;5.55;100.00;93100.38;5091763;28;20049;-75
2022/11/04 04:27:34;;;;;;;56.95;19.27;;;;;;;5.57;100.00;93113.72;5091355;28;20058;-75
2022/11/04 04:30:04;;;;;;;52.15;18.52;;;;;;;5.38;100.00;93117.63;5077482;28;20040;-75
2022/11/04 04:32:35;;;;;;;43.40;18.17;;;;;;;5.08;100.00;93108.28;5091911;28;20116;-74
2022/11/04 04:37:50;;;;;;;71.20;21.42;;;;;;;5.08;100.00;93111.66;5091733;28;20094;-75
2022/11/04 04:45:55;;;;;;;64.78;20.70;;;;;;;5.21;100.00;93118.66;5091080;28;20457;-77
2022/11/04 04:48:22;;;;;;;61.95;21.13;;;;;;;5.06;100.00;93110.25;5091455;28;20561;-76
2022/11/04 04:50:56;;;;;;;55.92;19.58;;;;;;;5.12;100.00;93119.72;5091199;28;20048;-76
2022/11/04 04:53:23;;;;;;;59.47;22.08;;;;;;;5.18;100.00;93119.00;5091562;28;20080;-75
2022/11/04 04:55:50;;;;;;;61.40;20.70;;;;;;;5.26;100.00;93117.31;5091436;28;20089;-76
2022/11/04 04:58:17;;;;;;;70.15;21.60;;;;;;;5.25;100.00;93116.53;5091195;28;20059;-76
2022/11/04 05:00:43;;;;;;;83.30;22.90;;;;;;;5.27;100.00;93099.31;5091424;28;20040;-76
2022/11/04 05:03:10;;;;;;;70.00;22.77;;;;;;;5.38;100.00;93110.00;5091188;28;20582;-76
2022/11/04 05:05:37;;;;;;;76.47;25.40;;;;;;;5.43;100.00;93113.59;5090818;28;20056;-76
2022/11/04 05:08:06;;;;;;;64.95;22.35;;;;;;;5.32;100.00;93109.75;5091356;28;20076;-77
2022/11/04 05:10:33;;;;;;;53.50;22.17;;;;;;;5.30;100.00;93114.25;5090963;28;20097;-76
2022/11/04 05:15:45;;;;;;;44.80;19.75;;;;;;;5.33;100.00;93102.91;5090338;28;20058;-76
2022/11/04 05:18:11;;;;;;;48.42;20.73;;;;;;;5.20;100.00;93088.25;5091185;28;20500;-76
2022/11/04 05:20:39;;;;;;;47.30;19.05;;;;;;;5.41;100.00;93117.28;5090630;28;20496;-76
2022/11/04 05:23:07;;;;;;;47.75;22.13;;;;;;;5.30;100.00;93118.53;5090561;28;20051;-76
2022/11/04 05:25:34;;;;;;;47.65;20.05;;;;;;;5.39;100.00;93120.00;5091042;28;20473;-76
2022/11/04 05:28:01;;;;;;;47.53;21.65;;;;;;;5.41;100.00;93130.81;5089843;28;20047;-76
2022/11/04 05:30:28;;;;;;;48.40;23.50;;;;;;;5.29;100.00;93116.97;5090589;28;20135;-76
2022/11/04 05:32:55;;;;;;;46.60;23.42;;;;;;;5.08;100.00;93104.00;5090523;28;20505;-77
2022/11/04 05:35:22;;;;;;;43.30;23.70;;;;;;;5.17;100.00;93122.50;5090672;28;20040;-77
2022/11/04 05:37:48;;;;;;;57.50;27.17;;;;;;;5.21;100.00;93139.03;5090711;28;20055;-77
2022/11/04 05:40:17;;;;;;;65.50;32.85;;;;;;;5.23;100.00;93141.38;5090073;28;20040;-77
2022/11/04 05:42:44;;;;;;;57.20;29.20;;;;;;;5.22;100.00;93142.34;5090675;28;20052;-77
2022/11/04 05:45:11;;;;;;;58.97;30.85;;;;;;;5.43;100.00;93148.47;5090655;28;20052;-77
2022/11/04 05:47:38;;;;;;;61.67;31.48;;;;;;;5.52;100.00;93151.69;5089282;28;20079;-77
2022/11/04 05:50:05;;;;;;;69.47;34.90;;;;;;;5.57;100.00;93154.50;5072684;28;20110;-76
2022/11/04 05:52:32;;;;;;;74.82;37.72;;;;;;;5.59;100.00;93144.91;5089258;28;20052;-77
2022/11/04 05:54:59;;;;;;;59.42;28.70;;;;;;;5.65;100.00;93148.50;5089689;28;20450;-77
2022/11/04 05:57:27;;;;;;;57.50;29.80;;;;;;;5.81;100.00;93150.81;5090066;28;20101;-77
2022/11/04 05:59:53;;;;;;;61.17;30.30;;;;;;;5.86;100.00;93151.06;5089842;28;20113;-77
2022/11/04 06:02:20;;;;;;;73.43;36.55;;;;;;;5.94;100.00;93150.16;5089453;28;20044;-76
2022/11/04 06:04:47;;;;;;;46.63;23.52;;;;;;;6.11;100.00;93150.72;5090167;28;20052;-77
2022/11/04 06:07:14;;;;;;;61.78;30.48;;;;;;;6.14;100.00;93147.81;5090060;28;20051;-77
2022/11/04 06:09:40;;;;;;;57.13;28.63;;;;;;;6.13;100.00;93142.88;5090292;28;20051;-78
2022/11/04 06:12:08;;;;;;;55.42;25.08;;;;;;;6.31;100.00;93151.84;5089677;28;20097;-77
2022/11/04 06:14:37;;;;;;;41.55;22.10;;;;;;;6.21;100.00;93147.84;5090078;28;20043;-76
2022/11/04 06:17:04;;;;;;;46.85;22.90;;;;;;;6.31;100.00;93156.94;5089593;28;20105;-77
2022/11/04 06:19:31;;;;;;;43.28;23.90;;;;;;;6.29;100.00;93152.03;5090094;28;20044;-77
2022/11/04 06:21:58;;;;;;;49.28;23.40;;;;;;;6.33;100.00;93157.53;5089135;28;20520;-76
2022/11/04 06:24:25;;;;;;;49.90;22.05;;;;;;;6.28;100.00;93158.09;5089736;28;20488;-76
2022/11/04 06:26:51;;;;;;;42.70;23.35;;;;;;;6.38;100.00;93162.88;5089064;28;20097;-76
2022/11/04 06:29:18;;;;;;;51.65;22.35;;;;;;;6.51;100.00;93157.09;5089452;28;20492;-76
2022/11/04 06:31:46;;;;;;;53.95;23.42;;;;;;;6.58;100.00;93152.84;5089327;28;20446;-77
2022/11/04 06:34:13;;;;;;;59.05;25.05;;;;;;;6.64;100.00;93164.88;5089467;28;20569;-76
2022/11/04 06:36:39;;;;;;;60.30;24.08;;;;;;;6.72;100.00;93150.38;5088960;28;20098;-77
2022/11/04 06:39:06;;;;;;;61.72;25.27;;;;;;;6.80;100.00;93152.75;5090056;28;20446;-76
2022/11/04 06:41:33;;;;;;;66.30;26.85;;;;;;;7.09;100.00;93156.09;5089663;28;20047;-76
2022/11/04 06:44:00;;;;;;;79.68;34.90;;;;;;;7.29;100.00;93158.72;5089333;28;20385;-76
2022/11/04 06:46:30;;;;;;;70.95;28.23;;;;;;;7.40;100.00;93141.28;5089779;28;20048;-76
2022/11/04 06:48:58;;;;;;;67.72;26.95;;;;;;;7.59;100.00;93148.19;5089426;28;20416;-76
2022/11/04 06:51:25;;;;;;;50.13;23.00;;;;;;;7.82;100.00;93144.53;5089383;28;20102;-77
2022/11/04 06:53:52;;;;;;;53.92;24.17;;;;;;;8.09;100.00;93151.44;5089043;28;20153;-77
2022/11/04 06:56:19;;;;;;;60.83;37.35;;;;;;;8.34;100.00;93143.97;5089179;28;20097;-77
2022/11/04 06:58:48;;;;;;;47.03;22.95;;;;;;;8.69;100.00;93155.81;5089590;28;20078;-77
2022/11/04 07:01:15;;;;;;;40.30;18.08;;;;;;;9.05;100.00;93153.75;5089572;28;20050;-77
2022/11/04 07:03:42;;;;;;;35.28;18.77;;;;;;;9.43;100.00;93147.94;5089549;28;20416;-77
2022/11/04 07:06:11;;;;;;;33.83;17.17;;;;;;;9.76;100.00;93141.06;5089354;28;20419;-76
2022/11/04 07:08:39;;;;;;;23.98;11.70;;;;;;;10.21;100.00;93145.31;5088614;28;20093;-77
2022/11/04 07:11:06;;;;;;;15.75;8.82;;;;;;;10.46;100.00;93133.53;5089133;28;20056;-77
2022/11/04 07:13:33;;;;;;;16.85;9.02;;;;;;;10.94;100.00;93145.72;5089507;28;20105;-77
2022/11/04 07:16:00;;;;;;;16.52;7.80;;;;;;;11.28;100.00;93144.56;5089146;28;20055;-78
2022/11/04 07:18:27;;;;;;;16.52;7.78;;;;;;;11.55;100.00;93152.78;5089533;28;20048;-77
2022/11/04 07:20:54;;;;;;;18.65;7.82;;;;;;;11.85;100.00;93151.22;5089001;28;20051;-76
2022/11/04 07:23:22;;;;;;;57.42;27.92;;;;;;;12.11;100.00;93150.09;5088882;28;20458;-75
2022/11/04 07:25:49;;;;;;;69.30;32.55;;;;;;;12.39;98.67;93142.75;5089194;28;20055;-75
2022/11/04 07:28:16;;;;;;;51.35;23.08;;;;;;;12.69;96.26;93147.03;5089202;28;20143;-76
2022/11/04 07:30:42;;;;;;;44.80;21.00;;;;;;;12.90;93.67;93148.25;5089284;28;20048;-76
2022/11/04 07:33:09;;;;;;;43.80;18.92;;;;;;;13.13;93.99;93143.28;5089321;28;20056;-76
2022/11/04 07:35:36;;;;;;;55.53;22.65;;;;;;;13.35;92.46;93143.50;5088827;28;20093;-76
2022/11/04 07:38:03;;;;;;;36.13;16.58;;;;;;;13.56;90.32;93139.53;5089114;28;20101;-75
2022/11/04 07:40:33;;;;;;;44.63;16.63;;;;;;;13.71;88.97;93139.03;5088851;28;20567;-76
2022/11/04 07:43:00;;;;;;;24.27;10.40;;;;;;;13.83;88.11;93133.03;5090864;28;20055;-76
2022/11/04 07:45:27;;;;;;;15.50;8.07;;;;;;;13.93;87.84;93129.84;5092333;28;20048;-76
2022/11/04 07:47:53;;;;;;;19.75;7.90;;;;;;;13.95;86.84;93136.34;5092573;28;20051;-76
2022/11/04 07:50:20;;;;;;;15.40;6.93;;;;;;;13.95;86.59;93133.78;5084923;28;20087;-76
2022/11/04 07:52:47;;;;;;;19.27;7.50;;;;;;;14.01;86.63;93126.88;5075533;28;20052;-75
2022/11/04 07:55:17;;;;;;;15.65;7.68;;;;;;;14.08;85.70;93127.53;5091743;28;20098;-75
2022/11/04 07:57:45;;;;;;;20.30;8.35;;;;;;;14.16;85.36;93126.34;5092350;28;20051;-75
2022/11/04 08:00:14;;;;;;;14.05;6.82;;;;;;;14.30;85.79;93125.03;5092557;28;20055;-76
2022/11/04 08:02:41;;;;;;;19.23;8.18;;;;;;;14.27;84.63;93120.31;5091979;28;20088;-76
2022/11/04 08:05:08;;;;;;;13.70;6.65;;;;;;;14.42;84.00;93122.38;5092336;28;20048;-76
2022/11/04 08:07:35;;;;;;;16.08;7.68;;;;;;;14.57;83.66;93131.38;5092496;28;20575;-75
2022/11/04 08:10:02;;;;;;;16.50;8.10;;;;;;;14.67;82.80;93117.81;5092276;28;20105;-75
2022/11/04 08:12:30;;;;;;;16.85;7.47;;;;;;;14.72;82.25;93114.53;5092107;28;20059;-75
2022/11/04 08:14:58;;;;;;;15.00;7.10;;;;;;;14.81;80.82;93119.06;5092081;28;20552;-75
2022/11/04 08:17:25;;;;;;;13.73;7.20;;;;;;;14.88;80.88;93115.53;5092027;28;20554;-75
2022/11/04 08:19:52;;;;;;;13.90;6.55;;;;;;;15.06;80.83;93112.69;5092548;28;20105;-75
2022/11/04 08:22:19;;;;;;;23.92;7.93;;;;;;;15.31;79.60;93108.84;5091070;28;20073;-75
2022/11/04 08:24:46;;;;;;;15.35;6.28;;;;;;;15.49;79.46;93110.34;5091660;28;20052;-75
2022/11/04 08:27:13;;;;;;;17.85;6.85;;;;;;;15.53;77.43;93102.06;5091967;28;20058;-78
2022/11/04 08:29:39;;;;;;;14.45;6.13;;;;;;;15.62;77.51;93105.81;5091989;28;20105;-75
2022/11/04 08:32:08;;;;;;;14.25;6.55;;;;;;;15.62;76.87;93095.44;5092172;28;20063;-75
2022/11/04 08:34:35;;;;;;;17.30;6.68;;;;;;;15.79;76.35;93100.53;5091837;28;20055;-75
2022/11/04 08:37:02;;;;;;;15.63;6.65;;;;;;;15.84;75.59;93097.22;5092026;28;20442;-75
2022/11/04 08:39:29;;;;;;;13.82;6.47;;;;;;;16.05;75.01;93103.38;5091568;28;20105;-75
2022/11/04 08:41:56;;;;;;;13.90;6.25;;;;;;;16.11;74.14;93099.03;5091671;28;20062;-75
2022/11/04 08:44:23;;;;;;;15.63;6.20;;;;;;;16.07;74.19;93100.56;5091910;28;20114;-75
2022/11/04 08:46:50;;;;;;;12.68;6.43;;;;;;;16.19;73.80;93095.22;5091240;28;20094;-75
2022/11/04 08:49:18;;;;;;;10.82;5.32;;;;;;;16.29;73.17;93088.28;5091329;28;20133;-76
2022/11/04 08:51:48;;;;;;;14.77;6.85;;;;;;;16.33;73.17;93080.03;5091759;28;20052;-75
2022/11/04 08:54:15;;;;;;;18.42;7.07;;;;;;;16.52;72.47;93088.97;5090770;28;20068;-75
2022/11/04 08:56:42;;;;;;;15.85;5.95;;;;;;;16.64;71.42;93085.41;5091556;28;20047;-75
2022/11/04 08:59:10;;;;;;;14.93;7.22;;;;;;;16.80;71.37;93088.88;5091278;28;20504;-75
2022/11/04 09:01:37;;;;;;;18.42;6.43;;;;;;;16.86;69.85;93076.72;5091393;28;20579;-75
2022/11/04 09:04:04;;;;;;;14.52;6.55;;;;;;;17.08;70.30;93085.16;5090978;28;20052;-75
2022/11/04 09:06:34;;;;;;;15.02;5.90;;;;;;;17.30;67.13;93083.41;5091449;28;20129;-75
2022/11/04 09:09:03;;;;;;;15.32;7.38;;;;;;;17.47;68.35;93080.59;5091436;28;20052;-75
2022/11/04 09:11:31;;;;;;;16.48;6.07;;;;;;;17.49;66.71;93068.94;5091048;28;20113;-75
2022/11/04 09:14:00;;;;;;;17.90;6.93;;;;;;;17.50;66.20;93059.34;5091054;28;20121;-75
2022/11/04 09:16:27;;;;;;;27.95;11.23;;;;;;;17.74;67.72;93061.44;5091182;28;20051;-75
2022/11/04 09:18:55;;;;;;;24.88;10.45;;;;;;;18.02;64.93;93062.75;5091184;28;20044;-75
2022/11/04 09:21:22;;;;;;;26.15;12.55;;;;;;;18.24;64.54;93061.00;5090989;28;20048;-76
2022/11/04 09:23:50;;;;;;;21.95;9.32;;;;;;;18.38;62.38;93059.41;5090680;28;20060;-75
2022/11/04 09:26:17;;;;;;;24.92;11.95;;;;;;;18.46;62.34;93031.31;5090845;28;20104;-75
2022/11/04 09:28:44;;;;;;;21.15;10.98;;;;;;;18.71;61.25;93056.50;5090495;28;20044;-75
2022/11/04 09:31:13;;;;;;;17.17;8.82;;;;;;;18.81;59.58;93047.88;5090546;28;20101;-75
2022/11/04 09:33:39;;;;;;;15.02;6.85;;;;;;;18.88;58.72;93045.00;5089914;28;20085;-75
2022/11/04 09:36:08;;;;;;;24.70;11.50;;;;;;;18.93;58.49;93048.38;5090426;28;20545;-75
2022/11/04 09:38:35;;;;;;;19.30;8.15;;;;;;;18.84;58.44;93044.75;5091012;28;20052;-75
2022/11/04 09:41:10;;;;;;;19.58;7.45;;;;;;;18.74;58.96;93040.34;5089808;28;20048;-75
2022/11/04 09:43:48;;;;;;;20.00;9.68;;;;;;;18.68;58.83;93029.19;5090552;28;20056;-75
2022/11/04 09:46:15;;;;;;;21.33;9.88;;;;;;;18.71;59.43;93020.09;5090376;28;20044;-75
2022/11/04 09:48:45;;;;;;;22.35;8.68;;;;;;;18.81;59.39;93022.66;5090531;28;20385;-75
2022/11/04 09:51:13;;;;;;;13.90;5.82;;;;;;;18.81;58.30;93014.06;5090417;28;20058;-75
2022/11/04 09:53:44;;;;;;;18.25;9.07;;;;;;;18.80;58.94;92982.03;5090286;28;20121;-75
2022/11/04 09:56:17;;;;;;;13.10;6.93;;;;;;;19.11;58.47;93006.44;5090036;28;20097;-75
2022/11/04 09:58:44;;;;;;;27.33;7.78;;;;;;;19.30;58.39;93007.34;5090329;28;20048;-75
2022/11/04 10:01:26;;;;;;;16.17;6.68;;;;;;;19.25;56.53;92993.59;5090157;28;20077;-75
2022/11/04 10:04:06;;;;;;;17.02;5.60;;;;;;;19.21;56.90;93001.19;5089909;28;20496;-75
2022/11/04 10:06:45;;;;;;;13.32;5.57;;;;;;;19.26;56.02;93002.97;5089547;28;20496;-75
2022/11/04 10:09:24;;;;;;;19.63;7.72;;;;;;;19.25;56.18;92983.94;5089648;28;20044;-75
2022/11/04 10:12:05;;;;;;;17.30;5.80;;;;;;;19.32;55.76;92983.66;5090260;28;20048;-74
2022/11/04 10:15:01;;;;;;;14.02;6.25;;;;;;;19.39;55.99;92986.72;5090066;28;20051;-75
2022/11/04 10:17:44;;;;;;;18.75;6.32;;;;;;;19.47;55.70;92978.38;5090014;28;20116;-75
2022/11/04 10:20:26;;;;;;;14.65;6.88;;;;;;;19.57;55.38;92977.50;5090148;28;20105;-75
2022/11/04 10:22:57;;;;;;;16.05;6.63;;;;;;;19.58;55.84;92955.59;5089475;28;20561;-75
2022/11/04 10:25:33;;;;;;;16.65;6.10;;;;;;;19.79;55.73;92955.47;5089761;28;20048;-75
2022/11/04 10:28:02;;;;;;;17.55;4.97;;;;;;;20.03;54.71;92947.72;5089613;28;20044;-75
2022/11/04 10:30:30;;;;;;;14.65;5.43;;;;;;;20.12;54.11;92942.69;5089951;28;20044;-75
2022/11/04 10:33:04;;;;;;;22.30;8.02;;;;;;;20.26;53.13;92942.03;5089736;28;20063;-75
2022/11/04 10:35:36;;;;;;;14.45;5.18;;;;;;;20.25;53.00;92928.22;5089484;28;20044;-75
2022/11/04 10:38:17;;;;;;;12.15;4.68;;;;;;;20.36;51.79;92923.66;5089912;28;20048;-75
2022/11/04 10:40:48;;;;;;;16.77;5.93;;;;;;;20.38;51.95;92920.78;5075620;28;20412;-75
2022/11/04 10:43:22;;;;;;;14.00;4.72;;;;;;;20.37;51.12;92912.16;5089858;28;20058;-75
2022/11/04 10:46:02;;;;;;;13.52;4.97;;;;;;;20.40;50.84;92908.22;5089542;28;20044;-75
2022/11/04 10:48:37;;;;;;;11.90;4.82;;;;;;;20.28;50.98;92895.59;5089400;28;20048;-75
2022/11/04 10:51:05;;;;;;;12.07;4.88;;;;;;;20.29;50.08;92894.53;5089474;28;20501;-75
2022/11/04 10:53:34;;;;;;;15.63;4.97;;;;;;;20.32;49.18;92893.97;5089601;28;20087;-75
2022/11/04 10:56:08;;;;;;;14.45;5.03;;;;;;;20.15;49.69;92892.56;5089099;28;20044;-75
2022/11/04 10:58:42;;;;;;;15.00;5.90;;;;;;;20.13;49.88;92880.88;5066754;28;20041;-75
2022/11/04 11:01:28;;;;;;;9.55;4.93;;;;;;;20.21;50.26;92876.88;5087721;28;20528;-75
2022/11/04 11:03:56;;;;;;;9.68;4.85;;;;;;;20.31;49.20;92868.19;5088606;28;20580;-75
2022/11/04 11:06:28;;;;;;;12.65;4.07;;;;;;;20.38;48.67;92879.03;5089224;28;20044;-75
2022/11/04 11:08:58;;;;;;;13.00;4.75;;;;;;;20.56;48.84;92872.31;5089473;28;20508;-75
2022/11/04 11:11:44;;;;;;;15.30;4.88;;;;;;;20.68;49.09;92864.06;5089511;28;20121;-75
2022/11/04 11:14:30;;;;;;;16.85;5.40;;;;;;;20.69;47.87;92860.41;5089098;28;20052;-75
2022/11/04 11:17:17;;;;;;;9.70;4.00;;;;;;;20.75;47.56;92850.66;5091285;28;20534;-75
2022/11/04 11:19:49;;;;;;;7.25;4.38;;;;;;;20.69;47.08;92858.56;5093396;28;20048;-75
2022/11/04 11:22:31;;;;;;;11.48;3.63;;;;;;;20.60;46.36;92847.19;5093154;28;20084;-75
2022/11/04 11:25:17;;;;;;;13.20;3.70;;;;;;;20.62;46.07;92832.06;5093125;28;20087;-75
2022/11/04 11:27:48;;;;;;;10.43;3.70;;;;;;;20.61;46.00;92835.72;5092988;28;20097;-76
2022/11/04 11:30:30;;;;;;;7.82;3.42;;;;;;;20.68;45.64;92827.53;5092787;28;20492;-75
2022/11/04 11:33:23;;;;;;;8.25;3.30;;;;;;;20.62;45.78;92824.22;5083590;28;20458;-75
2022/11/04 11:35:53;;;;;;;12.00;4.00;;;;;;;20.56;45.70;92814.91;5087288;28;20044;-75
2022/11/04 11:38:22;;;;;;;9.95;3.75;;;;;;;20.49;45.17;92810.03;5092274;28;20048;-76
2022/11/04 11:40:51;;;;;;;8.82;3.60;;;;;;;20.46;45.71;92815.03;5092606;28;20062;-75
2022/11/04 11:43:25;;;;;;;8.43;4.07;;;;;;;20.54;45.32;92812.56;5092746;28;20483;-76
2022/11/04 11:45:56;;;;;;;9.10;3.97;;;;;;;20.74;45.39;92809.97;5092791;28;20389;-75
2022/11/04 11:48:31;;;;;;;10.95;4.47;;;;;;;20.62;45.61;92789.50;5092679;28;20056;-75
2022/11/04 11:50:59;;;;;;;9.43;3.88;;;;;;;20.83;44.78;92801.22;5092455;28;20056;-75
2022/11/04 11:53:28;;;;;;;14.55;4.22;;;;;;;20.92;45.49;92790.16;5092460;28;20050;-75
2022/11/04 11:56:05;;;;;;;10.25;3.53;;;;;;;20.96;44.25;92791.91;5092177;28;20044;-76
2022/11/04 11:58:39;;;;;;;10.45;3.85;;;;;;;21.01;43.87;92798.88;5092606;28;20048;-75
2022/11/04 12:01:15;;;;;;;9.93;3.83;;;;;;;21.00;42.70;92788.72;5092392;28;20055;-75
2022/11/04 12:03:44;;;;;;;8.00;4.00;;;;;;;20.79;42.90;92789.78;5092252;28;20083;-75
2022/11/04 12:06:40;;;;;;;12.18;4.03;;;;;;;20.76;42.76;92787.75;5092175;28;20098;-75